sensor_id;sensor_type;location;lat;lon;timestamp;pressure;altitude;pressure_sealevel;temperature;humidity
64698;BME280;51124;53.394;-6.294;2023-02-28T00:00:37;102968.36;;;15.87;9.30
64698;BME280;51124;53.394;-6.294;2023-02-28T00:03:04;102966.31;;;16.09;9.26
64698;BME280;51124;53.394;-6.294;2023-02-28T00:05:32;102967.77;;;16.39;9.17
64698;BME280;51124;53.394;-6.294;2023-02-28T00:08:00;102971.53;;;17.03;9.01
64698;BME280;51124;53.394;-6.294;2023-02-28T00:10:31;102965.87;;;16.30;8.98
64698;BME280;51124;53.394;-6.294;2023-02-28T00:13:02;102970.58;;;16.21;9.01
64698;BME280;51124;53.394;-6.294;2023-02-28T00:15:30;102973.41;;;17.03;8.75
64698;BME280;51124;53.394;-6.294;2023-02-28T00:17:57;102977.24;;;15.94;8.97
64698;BME280;51124;53.394;-6.294;2023-02-28T00:20:25;102972.91;;;16.77;8.67
64698;BME280;51124;53.394;-6.294;2023-02-28T00:22:53;102972.60;;;15.68;8.94
64698;BME280;51124;53.394;-6.294;2023-02-28T00:25:23;102972.78;;;15.87;8.80
64698;BME280;51124;53.394;-6.294;2023-02-28T00:27:50;102973.84;;;15.38;8.85
64698;BME280;51124;53.394;-6.294;2023-02-28T00:30:20;102973.33;;;15.17;8.65
64698;BME280;51124;53.394;-6.294;2023-02-28T00:32:48;102975.30;;;16.89;8.51
64698;BME280;51124;53.394;-6.294;2023-02-28T00:35:17;102981.02;;;16.62;8.67
64698;BME280;51124;53.394;-6.294;2023-02-28T00:37:44;102984.48;;;16.29;8.68
64698;BME280;51124;53.394;-6.294;2023-02-28T00:40:12;102981.91;;;15.65;8.64
64698;BME280;51124;53.394;-6.294;2023-02-28T00:42:40;102983.12;;;16.25;8.51
64698;BME280;51124;53.394;-6.294;2023-02-28T00:45:09;102988.74;;;15.96;8.67
64698;BME280;51124;53.394;-6.294;2023-02-28T00:47:36;102987.62;;;15.79;8.63
64698;BME280;51124;53.394;-6.294;2023-02-28T00:50:05;102986.85;;;16.81;8.52
64698;BME280;51124;53.394;-6.294;2023-02-28T00:52:32;102980.00;;;15.91;8.61
64698;BME280;51124;53.394;-6.294;2023-02-28T00:55:00;102978.38;;;15.48;8.85
64698;BME280;51124;53.394;-6.294;2023-02-28T00:57:27;102979.42;;;16.14;8.55
64698;BME280;51124;53.394;-6.294;2023-02-28T00:59:54;102981.89;;;16.20;8.53
64698;BME280;51124;53.394;-6.294;2023-02-28T01:02:22;102984.59;;;16.00;8.58
64698;BME280;51124;53.394;-6.294;2023-02-28T01:04:50;102984.43;;;16.85;8.52
64698;BME280;51124;53.394;-6.294;2023-02-28T01:07:17;102990.43;;;15.39;8.87
64698;BME280;51124;53.394;-6.294;2023-02-28T01:09:44;102991.20;;;16.57;8.46
64698;BME280;51124;53.394;-6.294;2023-02-28T01:12:11;102989.20;;;16.65;8.48
64698;BME280;51124;53.394;-6.294;2023-02-28T01:14:39;102994.48;;;15.93;8.80
64698;BME280;51124;53.394;-6.294;2023-02-28T01:17:06;102994.99;;;15.76;8.63
64698;BME280;51124;53.394;-6.294;2023-02-28T01:19:34;102994.21;;;15.90;8.72
64698;BME280;51124;53.394;-6.294;2023-02-28T01:22:02;102991.86;;;15.68;8.70
64698;BME280;51124;53.394;-6.294;2023-02-28T01:24:30;102995.63;;;15.42;8.91
64698;BME280;51124;53.394;-6.294;2023-02-28T01:26:58;102992.72;;;15.56;8.78
64698;BME280;51124;53.394;-6.294;2023-02-28T01:29:25;102991.66;;;15.27;8.74
64698;BME280;51124;53.394;-6.294;2023-02-28T01:31:52;102990.13;;;15.60;8.59
64698;BME280;51124;53.394;-6.294;2023-02-28T01:34:20;102988.01;;;16.05;8.54
64698;BME280;51124;53.394;-6.294;2023-02-28T01:36:47;102987.95;;;16.62;8.45
64698;BME280;51124;53.394;-6.294;2023-02-28T01:39:15;102991.20;;;18.63;8.71
64698;BME280;51124;53.394;-6.294;2023-02-28T01:41:42;102996.04;;;18.28;9.31
64698;BME280;51124;53.394;-6.294;2023-02-28T01:44:58;102994.12;;;17.60;9.37
64698;BME280;51124;53.394;-6.294;2023-02-28T01:46:45;102994.25;;;17.16;9.46
64698;BME280;51124;53.394;-6.294;2023-02-28T01:49:15;102997.86;;;19.27;9.80
64698;BME280;51124;53.394;-6.294;2023-02-28T01:51:46;103000.45;;;18.91;10.27
64698;BME280;51124;53.394;-6.294;2023-02-28T01:54:19;103003.68;;;19.09;10.37
64698;BME280;51124;53.394;-6.294;2023-02-28T01:56:49;102999.45;;;18.86;10.59
64698;BME280;51124;53.394;-6.294;2023-02-28T01:59:24;102997.45;;;18.39;10.85
64698;BME280;51124;53.394;-6.294;2023-02-28T02:01:54;103002.08;;;18.72;10.91
64698;BME280;51124;53.394;-6.294;2023-02-28T02:04:24;103000.30;;;19.06;10.81
64698;BME280;51124;53.394;-6.294;2023-02-28T02:06:54;103001.11;;;18.95;11.06
64698;BME280;51124;53.394;-6.294;2023-02-28T02:09:22;103001.73;;;18.36;11.07
64698;BME280;51124;53.394;-6.294;2023-02-28T02:11:50;103005.08;;;18.63;11.06
64698;BME280;51124;53.394;-6.294;2023-02-28T02:14:40;103004.80;;;18.36;11.01
64698;BME280;51124;53.394;-6.294;2023-02-28T02:17:02;103000.19;;;17.73;11.25
64698;BME280;51124;53.394;-6.294;2023-02-28T02:19:41;102997.86;;;18.26;11.19
64698;BME280;51124;53.394;-6.294;2023-02-28T02:22:21;102995.97;;;18.12;11.21
64698;BME280;51124;53.394;-6.294;2023-02-28T02:24:46;102998.44;;;17.97;11.17
64698;BME280;51124;53.394;-6.294;2023-02-28T02:27:13;103001.21;;;17.96;11.14
64698;BME280;51124;53.394;-6.294;2023-02-28T02:29:42;103003.47;;;19.00;11.05
64698;BME280;51124;53.394;-6.294;2023-02-28T02:32:09;103003.77;;;18.64;11.05
64698;BME280;51124;53.394;-6.294;2023-02-28T02:34:39;103002.67;;;18.37;11.16
64698;BME280;51124;53.394;-6.294;2023-02-28T02:36:51;103002.97;;;18.19;11.08
64698;BME280;51124;53.394;-6.294;2023-02-28T02:39:25;103002.34;;;16.46;11.14
64698;BME280;51124;53.394;-6.294;2023-02-28T02:41:56;102998.53;;;15.46;10.87
64698;BME280;51124;53.394;-6.294;2023-02-28T02:44:30;102996.48;;;15.69;10.36
64698;BME280;51124;53.394;-6.294;2023-02-28T02:47:03;102995.35;;;16.13;9.96
64698;BME280;51124;53.394;-6.294;2023-02-28T02:49:35;102992.46;;;16.38;9.72
64698;BME280;51124;53.394;-6.294;2023-02-28T02:52:06;102991.71;;;15.94;9.52
64698;BME280;51124;53.394;-6.294;2023-02-28T02:54:37;102987.37;;;15.76;9.46
64698;BME280;51124;53.394;-6.294;2023-02-28T02:57:09;102986.21;;;16.10;9.23
64698;BME280;51124;53.394;-6.294;2023-02-28T02:59:41;102987.58;;;15.18;9.37
64698;BME280;51124;53.394;-6.294;2023-02-28T03:02:11;102987.25;;;15.61;9.26
64698;BME280;51124;53.394;-6.294;2023-02-28T03:04:43;102986.11;;;16.12;9.01
64698;BME280;51124;53.394;-6.294;2023-02-28T03:07:11;102985.96;;;16.31;8.89
64698;BME280;51124;53.394;-6.294;2023-02-28T03:09:38;102985.58;;;15.99;8.94
64698;BME280;51124;53.394;-6.294;2023-02-28T03:12:09;102983.78;;;16.25;8.90
64698;BME280;51124;53.394;-6.294;2023-02-28T03:14:49;102981.40;;;16.31;8.94
64698;BME280;51124;53.394;-6.294;2023-02-28T03:17:22;102980.06;;;15.80;8.90
64698;BME280;51124;53.394;-6.294;2023-02-28T03:19:50;102982.25;;;15.44;8.81
64698;BME280;51124;53.394;-6.294;2023-02-28T03:22:22;102983.67;;;15.06;9.00
64698;BME280;51124;53.394;-6.294;2023-02-28T03:24:45;102987.39;;;14.86;8.93
64698;BME280;51124;53.394;-6.294;2023-02-28T03:27:21;102986.93;;;15.84;8.66
64698;BME280;51124;53.394;-6.294;2023-02-28T03:29:57;102986.19;;;16.52;8.53
64698;BME280;51124;53.394;-6.294;2023-02-28T03:32:21;102988.05;;;15.50;8.69
64698;BME280;51124;53.394;-6.294;2023-02-28T03:34:45;102989.71;;;16.75;8.45
64698;BME280;51124;53.394;-6.294;2023-02-28T03:37:18;102991.50;;;16.47;8.64
64698;BME280;51124;53.394;-6.294;2023-02-28T03:39:49;102995.21;;;16.12;8.68
64698;BME280;51124;53.394;-6.294;2023-02-28T03:42:21;102994.42;;;16.05;8.62
64698;BME280;51124;53.394;-6.294;2023-02-28T03:44:53;102995.67;;;15.13;8.77
64698;BME280;51124;53.394;-6.294;2023-02-28T03:47:24;102997.34;;;16.24;8.70
64698;BME280;51124;53.394;-6.294;2023-02-28T03:49:56;103000.01;;;16.30;8.62
64698;BME280;51124;53.394;-6.294;2023-02-28T03:52:28;103002.01;;;15.77;8.83
64698;BME280;51124;53.394;-6.294;2023-02-28T03:55:03;103002.56;;;14.87;8.89
64698;BME280;51124;53.394;-6.294;2023-02-28T03:57:37;103002.25;;;15.81;8.85
64698;BME280;51124;53.394;-6.294;2023-02-28T04:00:11;103001.42;;;15.46;8.77
64698;BME280;51124;53.394;-6.294;2023-02-28T04:02:40;103000.14;;;16.09;8.69
64698;BME280;51124;53.394;-6.294;2023-02-28T04:05:08;103003.59;;;16.79;8.73
64698;BME280;51124;53.394;-6.294;2023-02-28T04:07:36;103004.83;;;14.67;8.90
64698;BME280;51124;53.394;-6.294;2023-02-28T04:10:04;103004.84;;;16.43;8.58
64698;BME280;51124;53.394;-6.294;2023-02-28T04:12:31;102999.99;;;15.32;8.74
64698;BME280;51124;53.394;-6.294;2023-02-28T04:14:59;102999.26;;;15.66;8.64
64698;BME280;51124;53.394;-6.294;2023-02-28T04:17:26;103000.31;;;16.00;8.94
64698;BME280;51124;53.394;-6.294;2023-02-28T04:19:54;103004.41;;;17.60;8.66
64698;BME280;51124;53.394;-6.294;2023-02-28T04:22:21;103009.27;;;15.67;8.74
64698;BME280;51124;53.394;-6.294;2023-02-28T04:24:48;103009.88;;;15.82;8.81
64698;BME280;51124;53.394;-6.294;2023-02-28T04:27:16;103009.33;;;15.60;8.62
64698;BME280;51124;53.394;-6.294;2023-02-28T04:29:43;103017.24;;;16.24;8.56
64698;BME280;51124;53.394;-6.294;2023-02-28T04:32:10;103022.27;;;15.89;8.74
64698;BME280;51124;53.394;-6.294;2023-02-28T04:34:38;103027.08;;;18.39;8.99
64698;BME280;51124;53.394;-6.294;2023-02-28T04:37:06;103031.26;;;17.26;9.70
64698;BME280;51124;53.394;-6.294;2023-02-28T04:39:37;103030.73;;;15.95;9.69
64698;BME280;51124;53.394;-6.294;2023-02-28T04:42:05;103024.51;;;20.21;9.33
64698;BME280;51124;53.394;-6.294;2023-02-28T04:44:33;103031.34;;;19.13;10.02
64698;BME280;51124;53.394;-6.294;2023-02-28T04:47:01;103035.47;;;18.86;10.57
64698;BME280;51124;53.394;-6.294;2023-02-28T04:49:28;103036.39;;;18.58;10.48
64698;BME280;51124;53.394;-6.294;2023-02-28T04:51:56;103042.09;;;18.14;10.89
64698;BME280;51124;53.394;-6.294;2023-02-28T04:54:24;103048.22;;;18.66;10.81
64698;BME280;51124;53.394;-6.294;2023-02-28T04:56:52;103048.71;;;18.95;10.88
64698;BME280;51124;53.394;-6.294;2023-02-28T04:59:19;103049.26;;;17.60;11.06
64698;BME280;51124;53.394;-6.294;2023-02-28T05:01:48;103050.25;;;18.47;11.03
64698;BME280;51124;53.394;-6.294;2023-02-28T05:04:16;103049.78;;;17.43;11.23
64698;BME280;51124;53.394;-6.294;2023-02-28T05:06:44;103049.91;;;18.73;10.93
64698;BME280;51124;53.394;-6.294;2023-02-28T05:09:12;103049.54;;;17.97;11.24
64698;BME280;51124;53.394;-6.294;2023-02-28T05:11:41;103047.92;;;17.90;11.10
64698;BME280;51124;53.394;-6.294;2023-02-28T05:14:13;103048.74;;;18.27;11.02
64698;BME280;51124;53.394;-6.294;2023-02-28T05:16:41;103045.82;;;17.01;11.46
64698;BME280;51124;53.394;-6.294;2023-02-28T05:19:09;103045.69;;;17.38;11.28
64698;BME280;51124;53.394;-6.294;2023-02-28T05:21:38;103047.90;;;18.43;11.14
64698;BME280;51124;53.394;-6.294;2023-02-28T05:24:09;103049.57;;;17.95;11.24
64698;BME280;51124;53.394;-6.294;2023-02-28T05:26:39;103048.91;;;17.27;11.36
64698;BME280;51124;53.394;-6.294;2023-02-28T05:29:08;103050.44;;;17.78;11.25
64698;BME280;51124;53.394;-6.294;2023-02-28T05:31:36;103053.02;;;17.42;11.25
64698;BME280;51124;53.394;-6.294;2023-02-28T05:34:04;103056.36;;;15.56;11.16
64698;BME280;51124;53.394;-6.294;2023-02-28T05:36:31;103058.07;;;15.70;10.60
64698;BME280;51124;53.394;-6.294;2023-02-28T05:38:59;103057.42;;;16.01;10.26
64698;BME280;51124;53.394;-6.294;2023-02-28T05:41:26;103059.61;;;16.13;10.06
64698;BME280;51124;53.394;-6.294;2023-02-28T05:43:54;103060.41;;;15.56;10.04
64698;BME280;51124;53.394;-6.294;2023-02-28T05:46:21;103062.23;;;15.62;9.74
64698;BME280;51124;53.394;-6.294;2023-02-28T05:48:50;103064.08;;;15.77;9.50
64698;BME280;51124;53.394;-6.294;2023-02-28T05:51:17;103066.86;;;15.19;9.55
64698;BME280;51124;53.394;-6.294;2023-02-28T05:53:45;103069.90;;;14.20;9.54
64698;BME280;51124;53.394;-6.294;2023-02-28T05:56:12;103063.97;;;16.41;9.27
64698;BME280;51124;53.394;-6.294;2023-02-28T05:58:40;103065.28;;;15.29;9.22
64698;BME280;51124;53.394;-6.294;2023-02-28T06:01:24;103062.51;;;14.89;9.14
64698;BME280;51124;53.394;-6.294;2023-02-28T06:03:41;103063.57;;;15.91;9.02
64698;BME280;51124;53.394;-6.294;2023-02-28T06:06:08;103062.54;;;15.66;9.02
64698;BME280;51124;53.394;-6.294;2023-02-28T06:08:36;103064.25;;;14.60;9.14
64698;BME280;51124;53.394;-6.294;2023-02-28T06:11:04;103065.31;;;15.57;8.85
64698;BME280;51124;53.394;-6.294;2023-02-28T06:13:32;103066.49;;;15.95;8.83
64698;BME280;51124;53.394;-6.294;2023-02-28T06:16:02;103065.26;;;16.12;8.78
64698;BME280;51124;53.394;-6.294;2023-02-28T06:18:29;103063.44;;;15.24;8.87
64698;BME280;51124;53.394;-6.294;2023-02-28T06:20:57;103063.41;;;15.33;8.99
64698;BME280;51124;53.394;-6.294;2023-02-28T06:23:24;103064.35;;;15.00;8.96
64698;BME280;51124;53.394;-6.294;2023-02-28T06:25:52;103068.27;;;15.62;8.78
64698;BME280;51124;53.394;-6.294;2023-02-28T06:28:19;103069.68;;;15.27;9.09
64698;BME280;51124;53.394;-6.294;2023-02-28T06:30:46;103068.84;;;15.11;8.97
64698;BME280;51124;53.394;-6.294;2023-02-28T06:33:14;103073.49;;;15.58;8.81
64698;BME280;51124;53.394;-6.294;2023-02-28T06:35:43;103077.06;;;15.61;8.77
64698;BME280;51124;53.394;-6.294;2023-02-28T06:38:10;103080.49;;;14.88;8.99
64698;BME280;51124;53.394;-6.294;2023-02-28T06:40:38;103079.59;;;15.54;8.79
64698;BME280;51124;53.394;-6.294;2023-02-28T06:43:05;103082.84;;;16.24;8.58
64698;BME280;51124;53.394;-6.294;2023-02-28T06:45:33;103089.67;;;16.10;8.77
64698;BME280;51124;53.394;-6.294;2023-02-28T06:48:00;103090.80;;;15.47;8.89
64698;BME280;51124;53.394;-6.294;2023-02-28T06:50:28;103091.88;;;15.33;8.84
64698;BME280;51124;53.394;-6.294;2023-02-28T06:52:55;103094.38;;;15.39;8.87
64698;BME280;51124;53.394;-6.294;2023-02-28T06:55:22;103098.39;;;14.85;8.71
64698;BME280;51124;53.394;-6.294;2023-02-28T06:57:49;103102.99;;;14.78;8.80
64698;BME280;51124;53.394;-6.294;2023-02-28T07:00:17;103105.18;;;16.66;8.91
64698;BME280;51124;53.394;-6.294;2023-02-28T07:02:45;103108.69;;;15.66;8.78
64698;BME280;51124;53.394;-6.294;2023-02-28T07:05:12;103113.55;;;15.60;8.81
64698;BME280;51124;53.394;-6.294;2023-02-28T07:07:39;103118.22;;;16.18;8.78
64698;BME280;51124;53.394;-6.294;2023-02-28T07:10:08;103116.25;;;15.64;8.61
64698;BME280;51124;53.394;-6.294;2023-02-28T07:12:36;103119.38;;;15.79;8.87
64698;BME280;51124;53.394;-6.294;2023-02-28T07:15:03;103124.49;;;16.64;8.83
64698;BME280;51124;53.394;-6.294;2023-02-28T07:17:31;103130.39;;;15.63;8.90
64698;BME280;51124;53.394;-6.294;2023-02-28T07:19:58;103132.96;;;14.39;8.90
64698;BME280;51124;53.394;-6.294;2023-02-28T07:22:25;103127.96;;;15.42;8.74
64698;BME280;51124;53.394;-6.294;2023-02-28T07:24:53;103125.08;;;14.85;8.82
64698;BME280;51124;53.394;-6.294;2023-02-28T07:27:20;103128.21;;;16.11;8.87
64698;BME280;51124;53.394;-6.294;2023-02-28T07:29:48;103134.29;;;18.33;9.10
64698;BME280;51124;53.394;-6.294;2023-02-28T07:32:15;103145.79;;;17.58;9.81
64698;BME280;51124;53.394;-6.294;2023-02-28T07:34:43;103148.17;;;15.99;9.84
64698;BME280;51124;53.394;-6.294;2023-02-28T07:37:11;103149.37;;;15.47;9.55
64698;BME280;51124;53.394;-6.294;2023-02-28T07:39:39;103151.85;;;19.83;9.66
64698;BME280;51124;53.394;-6.294;2023-02-28T07:42:07;103148.06;;;18.66;10.43
64698;BME280;51124;53.394;-6.294;2023-02-28T07:44:35;103148.61;;;19.03;10.70
64698;BME280;51124;53.394;-6.294;2023-02-28T07:47:03;103150.32;;;19.07;10.85
64698;BME280;51124;53.394;-6.294;2023-02-28T07:49:31;103150.19;;;18.98;10.88
64698;BME280;51124;53.394;-6.294;2023-02-28T07:51:59;103151.48;;;18.84;10.94
64698;BME280;51124;53.394;-6.294;2023-02-28T07:54:27;103152.69;;;19.00;10.90
64698;BME280;51124;53.394;-6.294;2023-02-28T07:56:55;103154.03;;;19.10;10.91
64698;BME280;51124;53.394;-6.294;2023-02-28T07:59:23;103155.44;;;19.54;10.83
64698;BME280;51124;53.394;-6.294;2023-02-28T08:01:51;103156.57;;;19.66;10.83
64698;BME280;51124;53.394;-6.294;2023-02-28T08:04:19;103160.95;;;19.38;10.68
64698;BME280;51124;53.394;-6.294;2023-02-28T08:06:47;103160.25;;;19.30;10.68
64698;BME280;51124;53.394;-6.294;2023-02-28T08:09:15;103163.86;;;19.25;10.79
64698;BME280;51124;53.394;-6.294;2023-02-28T08:11:42;103162.99;;;19.55;11.08
64698;BME280;51124;53.394;-6.294;2023-02-28T08:14:10;103165.13;;;19.13;11.35
64698;BME280;51124;53.394;-6.294;2023-02-28T08:16:38;103169.18;;;18.64;11.65
64698;BME280;51124;53.394;-6.294;2023-02-28T08:19:07;103171.96;;;18.53;11.68
64698;BME280;51124;53.394;-6.294;2023-02-28T08:21:35;103173.89;;;19.38;11.63
64698;BME280;51124;53.394;-6.294;2023-02-28T08:24:03;103173.99;;;19.58;11.49
64698;BME280;51124;53.394;-6.294;2023-02-28T08:26:31;103174.78;;;19.91;11.43
64698;BME280;51124;53.394;-6.294;2023-02-28T08:28:59;103176.50;;;18.24;11.40
64698;BME280;51124;53.394;-6.294;2023-02-28T08:31:26;103174.29;;;17.49;11.07
64698;BME280;51124;53.394;-6.294;2023-02-28T08:33:54;103169.19;;;17.59;10.75
64698;BME280;51124;53.394;-6.294;2023-02-28T08:36:22;103170.99;;;18.08;10.51
64698;BME280;51124;53.394;-6.294;2023-02-28T08:38:51;103176.36;;;17.61;10.54
64698;BME280;51124;53.394;-6.294;2023-02-28T08:41:18;103175.78;;;17.20;10.48
64698;BME280;51124;53.394;-6.294;2023-02-28T08:43:46;103171.80;;;17.77;9.95
64698;BME280;51124;53.394;-6.294;2023-02-28T08:46:14;103173.50;;;17.70;10.03
64698;BME280;51124;53.394;-6.294;2023-02-28T08:48:43;103173.83;;;17.87;9.78
64698;BME280;51124;53.394;-6.294;2023-02-28T08:51:13;103171.94;;;17.78;9.70
64698;BME280;51124;53.394;-6.294;2023-02-28T08:53:42;103177.40;;;16.93;9.65
64698;BME280;51124;53.394;-6.294;2023-02-28T08:56:11;103175.03;;;17.27;9.22
64698;BME280;51124;53.394;-6.294;2023-02-28T08:58:39;103174.46;;;16.65;8.81
64698;BME280;51124;53.394;-6.294;2023-02-28T09:01:15;103174.15;;;18.74;8.29
64698;BME280;51124;53.394;-6.294;2023-02-28T09:03:33;103174.11;;;19.27;8.01
64698;BME280;51124;53.394;-6.294;2023-02-28T09:06:03;103171.07;;;18.60;8.00
64698;BME280;51124;53.394;-6.294;2023-02-28T09:08:32;103172.51;;;18.89;7.79
64698;BME280;51124;53.394;-6.294;2023-02-28T09:10:59;103175.57;;;18.21;8.20
64698;BME280;51124;53.394;-6.294;2023-02-28T09:13:27;103177.43;;;18.63;8.29
64698;BME280;51124;53.394;-6.294;2023-02-28T09:15:57;103180.29;;;18.30;8.47
64698;BME280;51124;53.394;-6.294;2023-02-28T09:18:25;103182.44;;;18.84;8.53
64698;BME280;51124;53.394;-6.294;2023-02-28T09:20:52;103182.96;;;18.36;8.63
64698;BME280;51124;53.394;-6.294;2023-02-28T09:23:20;103183.69;;;17.27;8.73
64698;BME280;51124;53.394;-6.294;2023-02-28T09:25:49;103189.00;;;17.91;8.60
64698;BME280;51124;53.394;-6.294;2023-02-28T09:28:17;103182.85;;;18.27;8.69
64698;BME280;51124;53.394;-6.294;2023-02-28T09:30:47;103189.31;;;18.63;8.44
64698;BME280;51124;53.394;-6.294;2023-02-28T09:33:16;103188.34;;;19.03;8.24
64698;BME280;51124;53.394;-6.294;2023-02-28T09:35:44;103190.91;;;18.68;8.56
64698;BME280;51124;53.394;-6.294;2023-02-28T09:38:11;103188.93;;;19.19;8.45
64698;BME280;51124;53.394;-6.294;2023-02-28T09:40:43;103192.35;;;17.67;8.59
64698;BME280;51124;53.394;-6.294;2023-02-28T09:43:15;103189.49;;;18.39;8.66
64698;BME280;51124;53.394;-6.294;2023-02-28T09:45:47;103188.94;;;18.25;8.60
64698;BME280;51124;53.394;-6.294;2023-02-28T09:48:20;103190.12;;;18.24;8.46
64698;BME280;51124;53.394;-6.294;2023-02-28T09:50:51;103188.06;;;19.04;8.40
64698;BME280;51124;53.394;-6.294;2023-02-28T09:53:25;103186.81;;;17.94;8.78
64698;BME280;51124;53.394;-6.294;2023-02-28T09:55:57;103187.97;;;17.95;8.71
64698;BME280;51124;53.394;-6.294;2023-02-28T09:58:29;103186.36;;;18.30;8.63
64698;BME280;51124;53.394;-6.294;2023-02-28T10:01:03;103189.32;;;18.56;8.77
64698;BME280;51124;53.394;-6.294;2023-02-28T10:03:38;103189.85;;;17.79;8.63
64698;BME280;51124;53.394;-6.294;2023-02-28T10:06:11;103184.85;;;17.46;8.39
64698;BME280;51124;53.394;-6.294;2023-02-28T10:08:43;103186.27;;;18.36;8.32
64698;BME280;51124;53.394;-6.294;2023-02-28T10:11:15;103188.43;;;18.45;8.11
64698;BME280;51124;53.394;-6.294;2023-02-28T10:13:50;103189.35;;;19.00;8.31
64698;BME280;51124;53.394;-6.294;2023-02-28T10:16:24;103188.55;;;17.69;8.67
64698;BME280;51124;53.394;-6.294;2023-02-28T10:18:55;103185.24;;;17.81;8.59
64698;BME280;51124;53.394;-6.294;2023-02-28T10:21:28;103181.75;;;18.16;8.35
64698;BME280;51124;53.394;-6.294;2023-02-28T10:24:03;103183.18;;;17.72;8.49
64698;BME280;51124;53.394;-6.294;2023-02-28T10:26:35;103187.80;;;18.21;8.41
64698;BME280;51124;53.394;-6.294;2023-02-28T10:29:03;103190.36;;;19.86;8.19
64698;BME280;51124;53.394;-6.294;2023-02-28T10:31:31;103188.80;;;21.91;8.58
64698;BME280;51124;53.394;-6.294;2023-02-28T10:33:59;103193.74;;;21.06;8.86
64698;BME280;51124;53.394;-6.294;2023-02-28T10:36:26;103195.98;;;19.95;8.85
64698;BME280;51124;53.394;-6.294;2023-02-28T10:38:54;103194.70;;;21.18;9.22
64698;BME280;51124;53.394;-6.294;2023-02-28T10:41:30;103197.49;;;23.23;9.33
64698;BME280;51124;53.394;-6.294;2023-02-28T10:43:48;103200.30;;;22.37;9.80
64698;BME280;51124;53.394;-6.294;2023-02-28T10:46:18;103204.83;;;22.15;10.13
64698;BME280;51124;53.394;-6.294;2023-02-28T10:48:56;103213.44;;;21.07;10.59
64698;BME280;51124;53.394;-6.294;2023-02-28T10:51:18;103208.10;;;21.03;10.76
64698;BME280;51124;53.394;-6.294;2023-02-28T10:53:49;103201.79;;;21.92;10.54
64698;BME280;51124;53.394;-6.294;2023-02-28T10:56:20;103209.81;;;21.49;10.73
64698;BME280;51124;53.394;-6.294;2023-02-28T10:58:52;103205.12;;;21.60;10.73
64698;BME280;51124;53.394;-6.294;2023-02-28T11:01:22;103207.99;;;21.44;10.76
64698;BME280;51124;53.394;-6.294;2023-02-28T11:03:52;103207.01;;;20.92;10.92
64698;BME280;51124;53.394;-6.294;2023-02-28T11:06:22;103205.57;;;20.19;11.09
64698;BME280;51124;53.394;-6.294;2023-02-28T11:08:52;103205.08;;;21.75;10.91
64698;BME280;51124;53.394;-6.294;2023-02-28T11:11:22;103206.87;;;21.03;10.93
64698;BME280;51124;53.394;-6.294;2023-02-28T11:13:54;103203.10;;;21.60;10.90
64698;BME280;51124;53.394;-6.294;2023-02-28T11:16:31;103199.54;;;21.38;11.07
64698;BME280;51124;53.394;-6.294;2023-02-28T11:18:51;103192.30;;;21.45;11.05
64698;BME280;51124;53.394;-6.294;2023-02-28T11:21:24;103190.96;;;20.77;11.27
64698;BME280;51124;53.394;-6.294;2023-02-28T11:23:58;103194.46;;;21.13;11.24
64698;BME280;51124;53.394;-6.294;2023-02-28T11:26:46;103194.90;;;20.91;11.17
64698;BME280;51124;53.394;-6.294;2023-02-28T11:29:11;103192.46;;;21.43;10.94
64698;BME280;51124;53.394;-6.294;2023-02-28T11:31:29;103191.63;;;19.90;10.75
64698;BME280;51124;53.394;-6.294;2023-02-28T11:33:56;103188.73;;;19.48;10.22
64698;BME280;51124;53.394;-6.294;2023-02-28T11:36:25;103185.45;;;19.64;10.00
64698;BME280;51124;53.394;-6.294;2023-02-28T11:38:56;103187.96;;;18.63;10.00
64698;BME280;51124;53.394;-6.294;2023-02-28T11:41:37;103188.67;;;19.01;9.78
64698;BME280;51124;53.394;-6.294;2023-02-28T11:44:05;103190.18;;;19.34;9.74
64698;BME280;51124;53.394;-6.294;2023-02-28T11:46:34;103189.61;;;18.42;9.70
64698;BME280;51124;53.394;-6.294;2023-02-28T11:49:02;103189.37;;;19.25;9.55
64698;BME280;51124;53.394;-6.294;2023-02-28T11:51:27;103190.05;;;19.09;9.63
64698;BME280;51124;53.394;-6.294;2023-02-28T11:54:12;103188.97;;;18.68;9.70
64698;BME280;51124;53.394;-6.294;2023-02-28T11:56:30;103189.81;;;18.77;9.36
64698;BME280;51124;53.394;-6.294;2023-02-28T11:59:09;103194.77;;;19.73;9.31
64698;BME280;51124;53.394;-6.294;2023-02-28T12:01:47;103193.79;;;19.53;9.29
64698;BME280;51124;53.394;-6.294;2023-02-28T12:04:11;103196.99;;;18.12;9.22
64698;BME280;51124;53.394;-6.294;2023-02-28T12:06:36;103193.88;;;18.99;9.02
64698;BME280;51124;53.394;-6.294;2023-02-28T12:09:20;103189.21;;;18.79;9.19
64698;BME280;51124;53.394;-6.294;2023-02-28T12:11:42;103190.46;;;17.45;9.34
64698;BME280;51124;53.394;-6.294;2023-02-28T12:14:17;103185.73;;;18.13;9.27
64698;BME280;51124;53.394;-6.294;2023-02-28T12:16:37;103179.39;;;18.46;9.20
64698;BME280;51124;53.394;-6.294;2023-02-28T12:19:06;103175.35;;;18.24;9.10
64698;BME280;51124;53.394;-6.294;2023-02-28T12:21:36;103174.68;;;19.47;8.67
64698;BME280;51124;53.394;-6.294;2023-02-28T12:24:09;103175.85;;;18.77;8.99
64698;BME280;51124;53.394;-6.294;2023-02-28T12:26:37;103177.63;;;17.85;9.13
64698;BME280;51124;53.394;-6.294;2023-02-28T12:29:12;103173.13;;;18.98;8.85
64698;BME280;51124;53.394;-6.294;2023-02-28T12:31:44;103177.19;;;19.76;8.92
64698;BME280;51124;53.394;-6.294;2023-02-28T12:34:19;103172.23;;;19.50;8.64
64698;BME280;51124;53.394;-6.294;2023-02-28T12:36:47;103164.70;;;20.88;8.39
64698;BME280;51124;53.394;-6.294;2023-02-28T12:39:19;103157.98;;;21.04;8.13
64698;BME280;51124;53.394;-6.294;2023-02-28T12:41:51;103161.50;;;21.43;8.09
64698;BME280;51124;53.394;-6.294;2023-02-28T12:44:23;103159.45;;;20.79;8.06
64698;BME280;51124;53.394;-6.294;2023-02-28T12:46:57;103153.89;;;21.20;7.90
64698;BME280;51124;53.394;-6.294;2023-02-28T12:49:31;103154.59;;;21.57;7.92
64698;BME280;51124;53.394;-6.294;2023-02-28T12:52:01;103159.34;;;20.77;7.97
64698;BME280;51124;53.394;-6.294;2023-02-28T12:54:35;103151.19;;;22.13;7.59
64698;BME280;51124;53.394;-6.294;2023-02-28T12:57:09;103152.08;;;22.77;7.69